createdAt,value
2022-10-18T00:00:21.136Z,18.1
2022-10-18T00:01:23.558Z,18.1
2022-10-18T00:02:27.116Z,18.1
2022-10-18T00:03:30.923Z,18.1
2022-10-18T00:04:34.507Z,18.1
2022-10-18T00:05:37.229Z,18.1
2022-10-18T00:06:44.403Z,18.1
2022-10-18T00:07:47.402Z,18.1
2022-10-18T00:08:50.571Z,18.1
2022-10-18T00:09:53.276Z,18.1
2022-10-18T00:10:56.615Z,18.1
2022-10-18T00:11:59.986Z,18.1
2022-10-18T00:13:02.702Z,18.1
2022-10-18T00:14:05.146Z,18
2022-10-18T00:15:08.004Z,18
2022-10-18T00:16:10.526Z,18
2022-10-18T00:17:13.800Z,18
2022-10-18T00:18:17.220Z,18
2022-10-18T00:19:20.315Z,18
2022-10-18T00:20:26.456Z,18
2022-10-18T00:21:30.173Z,18
2022-10-18T00:22:34.610Z,18
2022-10-18T00:23:38.301Z,18
2022-10-18T00:24:41.651Z,18
2022-10-18T00:25:44.502Z,18
2022-10-18T00:26:47.291Z,18
2022-10-18T00:27:50.077Z,18
2022-10-18T00:28:53.742Z,17.9
2022-10-18T00:29:56.484Z,17.9
2022-10-18T00:30:59.833Z,17.9
2022-10-18T00:32:02.542Z,17.9
2022-10-18T00:33:05.685Z,18
2022-10-18T00:34:08.139Z,17.9
2022-10-18T00:35:11.018Z,18
2022-10-18T00:36:14.225Z,17.9
2022-10-18T00:37:17.230Z,17.9
2022-10-18T00:38:20.686Z,17.9
2022-10-18T00:39:24.437Z,17.9
2022-10-18T00:40:26.949Z,17.9
2022-10-18T00:41:30.564Z,17.9
2022-10-18T00:42:34.696Z,18
2022-10-18T00:43:37.844Z,17.9
2022-10-18T00:44:40.442Z,17.9
2022-10-18T00:45:43.613Z,18
2022-10-18T00:46:46.611Z,17.9
2022-10-18T00:47:49.401Z,18
2022-10-18T00:48:52.579Z,17.9
2022-10-18T00:49:56.100Z,18
2022-10-18T00:50:59.175Z,18
2022-10-18T00:52:02.569Z,18
2022-10-18T00:53:05.371Z,18
2022-10-18T00:54:08.195Z,18
2022-10-18T00:55:11.883Z,18
2022-10-18T00:56:14.934Z,18
2022-10-18T00:57:18.654Z,18
2022-10-18T00:58:21.984Z,18
2022-10-18T00:59:24.302Z,18
2022-10-18T01:00:27.134Z,18
2022-10-18T01:01:30.222Z,18
2022-10-18T01:02:33.594Z,18
2022-10-18T01:03:36.533Z,18
2022-10-18T01:04:39.600Z,18
2022-10-18T01:05:42.470Z,18
2022-10-18T01:06:45.310Z,18
2022-10-18T01:07:48.279Z,18
2022-10-18T01:08:51.851Z,18
2022-10-18T01:09:55.228Z,18
2022-10-18T01:10:58.997Z,18
2022-10-18T01:12:02.140Z,18
2022-10-18T01:13:05.580Z,18
2022-10-18T01:14:08.199Z,18
2022-10-18T01:15:11.451Z,18
2022-10-18T01:16:14.272Z,18
2022-10-18T01:17:17.405Z,18
2022-10-18T01:18:20.393Z,17.9
2022-10-18T01:19:23.184Z,17.9
2022-10-18T01:20:25.871Z,17.9
2022-10-18T01:21:28.662Z,17.9
2022-10-18T01:22:32.352Z,17.9
2022-10-18T01:23:35.469Z,17.9
2022-10-18T01:24:38.819Z,17.9
2022-10-18T01:25:42.555Z,17.9
2022-10-18T01:26:45.759Z,17.9
2022-10-18T01:27:48.932Z,17.9
2022-10-18T01:28:52.505Z,17.9
2022-10-18T01:29:55.443Z,17.9
2022-10-18T01:30:58.245Z,17.8
2022-10-18T01:32:01.661Z,17.8
2022-10-18T01:33:04.833Z,17.8
2022-10-18T01:34:08.535Z,17.8
2022-10-18T01:35:11.997Z,17.8
2022-10-18T01:36:14.449Z,17.8
2022-10-18T01:37:17.503Z,17.8
2022-10-18T01:38:20.268Z,17.8
2022-10-18T01:39:23.470Z,17.8
2022-10-18T01:40:27.205Z,17.8
2022-10-18T01:41:30.585Z,17.8
2022-10-18T01:42:34.437Z,17.8
2022-10-18T01:43:37.690Z,17.8
2022-10-18T01:44:39.853Z,17.7
2022-10-18T01:45:42.443Z,17.7
2022-10-18T01:46:45.793Z,17.7
2022-10-18T01:47:49.138Z,17.7
2022-10-18T01:48:51.999Z,17.7
2022-10-18T01:49:55.723Z,17.7
2022-10-18T01:50:59.088Z,17.7
2022-10-18T01:52:02.771Z,17.7
2022-10-18T01:53:05.666Z,17.7
2022-10-18T01:54:09.013Z,17.7
2022-10-18T01:55:12.710Z,17.6
2022-10-18T01:56:16.063Z,17.6
2022-10-18T01:57:19.164Z,17.6
2022-10-18T01:58:22.897Z,17.6
2022-10-18T01:59:25.409Z,17.6
2022-10-18T02:00:28.211Z,17.6
2022-10-18T02:01:31.074Z,17.6
2022-10-18T02:02:34.437Z,17.6
2022-10-18T02:03:38.209Z,17.6
2022-10-18T02:04:41.268Z,17.6
2022-10-18T02:05:44.541Z,17.6
2022-10-18T02:06:47.140Z,17.6
2022-10-18T02:08:23.042Z,17.6
2022-10-18T02:09:26.568Z,17.6
2022-10-18T02:10:29.745Z,17.6
2022-10-18T02:11:32.761Z,17.6
2022-10-18T02:12:35.418Z,17.6
2022-10-18T02:13:38.808Z,17.5
2022-10-18T02:14:41.667Z,17.5
2022-10-18T02:15:44.735Z,17.5
2022-10-18T02:16:47.900Z,17.5
2022-10-18T02:17:51.540Z,17.5
2022-10-18T02:18:54.688Z,17.5
2022-10-18T02:19:57.671Z,17.5
2022-10-18T02:21:00.784Z,17.5
2022-10-18T02:22:03.591Z,17.5
2022-10-18T02:23:06.104Z,17.5
2022-10-18T02:24:09.473Z,17.5
2022-10-18T02:25:12.275Z,17.5
2022-10-18T02:26:15.757Z,17.5
2022-10-18T02:27:18.832Z,17.5
2022-10-18T02:28:22.498Z,17.5
2022-10-18T02:29:26.364Z,17.5
2022-10-18T02:30:29.434Z,17.5
2022-10-18T02:31:32.781Z,17.5
2022-10-18T02:32:35.097Z,17.5
2022-10-18T02:33:38.090Z,17.5
2022-10-18T02:34:40.974Z,17.5
2022-10-18T02:35:44.049Z,17.5
2022-10-18T02:36:46.920Z,17.5
2022-10-18T02:37:49.266Z,17.4
2022-10-18T02:38:52.053Z,17.4
2022-10-18T02:39:54.949Z,17.4
2022-10-18T02:40:57.562Z,17.4
2022-10-18T02:42:00.202Z,17.4
2022-10-18T02:43:03.300Z,17.4
2022-10-18T02:44:06.938Z,17.4
2022-10-18T02:45:10.035Z,17.4
2022-10-18T02:46:13.483Z,17.4
2022-10-18T02:47:16.970Z,17.4
2022-10-18T02:48:19.695Z,17.3
2022-10-18T02:49:22.206Z,17.3
2022-10-18T02:50:25.340Z,17.4
2022-10-18T02:51:28.769Z,17.3
2022-10-18T02:52:32.202Z,17.3
2022-10-18T02:53:35.331Z,17.4
2022-10-18T02:54:38.586Z,17.4
2022-10-18T02:55:41.085Z,17.4
2022-10-18T02:56:43.797Z,17.3
2022-10-18T02:57:46.979Z,17.3
2022-10-18T02:58:50.036Z,17.3
2022-10-18T02:59:53.697Z,17.3
2022-10-18T03:00:57.122Z,17.3
2022-10-18T03:02:00.841Z,17.3
2022-10-18T03:03:03.304Z,17.3
2022-10-18T03:04:05.818Z,17.3
2022-10-18T03:05:08.045Z,17.3
2022-10-18T03:06:10.930Z,17.3
2022-10-18T03:07:13.379Z,17.3
2022-10-18T03:08:16.453Z,17.2
2022-10-18T03:09:19.324Z,17.3
2022-10-18T03:10:22.555Z,17.3
2022-10-18T03:11:25.545Z,17.3
2022-10-18T03:12:29.283Z,17.3
2022-10-18T03:13:32.123Z,17.3
2022-10-18T03:14:35.510Z,17.3
2022-10-18T03:15:38.208Z,17.3
2022-10-18T03:16:41.958Z,17.3
2022-10-18T03:17:45.021Z,17.3
2022-10-18T03:18:48.011Z,17.3
2022-10-18T03:19:51.087Z,17.3
2022-10-18T03:20:53.865Z,17.3
2022-10-18T03:21:56.574Z,17.3
2022-10-18T03:22:59.160Z,17.3
2022-10-18T03:24:02.040Z,17.3
2022-10-18T03:25:04.815Z,17.3
2022-10-18T03:26:07.959Z,17.2
2022-10-18T03:27:10.665Z,17.2
2022-10-18T03:28:13.093Z,17.2
2022-10-18T03:29:16.116Z,17.2
2022-10-18T03:30:19.204Z,17.2
2022-10-18T03:31:22.849Z,17.2
2022-10-18T03:32:26.876Z,17.2
2022-10-18T03:33:30.128Z,17.2
2022-10-18T03:34:32.842Z,17.2
2022-10-18T03:35:35.430Z,17.2
2022-10-18T03:36:39.150Z,17.1
2022-10-18T03:37:41.865Z,17.1
2022-10-18T03:38:44.956Z,17.1
2022-10-18T03:39:48.098Z,17.1
2022-10-18T03:40:50.975Z,17
2022-10-18T03:41:54.144Z,17
2022-10-18T03:42:56.369Z,17
2022-10-18T03:43:58.606Z,17
2022-10-18T03:45:01.739Z,17
2022-10-18T03:46:04.919Z,17
2022-10-18T03:47:07.824Z,16.9
2022-10-18T03:48:11.300Z,16.9
2022-10-18T03:49:14.645Z,16.9
2022-10-18T03:50:17.618Z,16.9
2022-10-18T03:51:20.790Z,16.9
2022-10-18T03:52:23.855Z,16.8
2022-10-18T03:53:26.636Z,16.8
2022-10-18T03:54:29.622Z,16.8
2022-10-18T03:55:32.419Z,16.8
2022-10-18T03:56:35.123Z,16.8
2022-10-18T03:57:37.648Z,16.8
2022-10-18T03:58:40.989Z,16.7
2022-10-18T03:59:43.917Z,16.7
2022-10-18T04:00:47.110Z,16.7
2022-10-18T04:01:50.406Z,16.7
2022-10-18T04:02:56.829Z,16.7
2022-10-18T04:04:00.514Z,16.6
2022-10-18T04:05:03.394Z,16.6
2022-10-18T04:06:06.377Z,16.6
2022-10-18T04:07:10.129Z,16.6
2022-10-18T04:08:13.287Z,16.6
2022-10-18T04:09:16.929Z,16.5
2022-10-18T04:10:19.998Z,16.5
2022-10-18T04:11:22.796Z,16.5
2022-10-18T04:12:25.505Z,16.5
2022-10-18T04:13:28.294Z,16.5
2022-10-18T04:14:31.086Z,16.5
2022-10-18T04:15:33.767Z,16.5
2022-10-18T04:16:37.349Z,16.4
2022-10-18T04:17:41.291Z,16.4
2022-10-18T04:18:44.751Z,16.4
2022-10-18T04:19:48.208Z,16.4
2022-10-18T04:20:52.202Z,16.4
2022-10-18T04:21:55.209Z,16.4
2022-10-18T04:22:58.286Z,16.4
2022-10-18T04:24:01.931Z,16.3
2022-10-18T04:25:05.034Z,16.3
2022-10-18T04:26:08.094Z,16.3
2022-10-18T04:27:10.689Z,16.3
2022-10-18T04:28:13.216Z,16.3
2022-10-18T04:29:16.643Z,16.3
2022-10-18T04:30:19.362Z,16.3
2022-10-18T04:31:22.631Z,16.3
2022-10-18T04:32:25.695Z,16.3
2022-10-18T04:33:28.412Z,16.3
2022-10-18T04:34:31.849Z,16.3
2022-10-18T04:35:36.262Z,16.3
2022-10-18T04:36:39.725Z,16.2
2022-10-18T04:37:43.452Z,16.3
2022-10-18T04:38:46.597Z,16.2
2022-10-18T04:39:54.174Z,16.2
2022-10-18T04:40:57.621Z,16.2
2022-10-18T04:42:00.207Z,16.2
2022-10-18T04:43:03.357Z,16.2
2022-10-18T04:44:06.788Z,16.2
2022-10-18T04:45:09.847Z,16.1
2022-10-18T04:46:12.718Z,16.1
2022-10-18T04:47:15.707Z,16.1
2022-10-18T04:48:18.214Z,16.1
2022-10-18T04:49:21.672Z,16.2
2022-10-18T04:50:25.163Z,16.2
2022-10-18T04:51:29.229Z,16.2
2022-10-18T04:52:32.402Z,16.1
2022-10-18T04:53:34.830Z,16.1
2022-10-18T04:54:37.262Z,16.1
2022-10-18T04:55:40.326Z,16.1
2022-10-18T04:56:43.186Z,16.1
2022-10-18T04:57:46.255Z,16.1
2022-10-18T04:58:48.845Z,16.1
2022-10-18T04:59:52.259Z,16.1
2022-10-18T05:00:55.054Z,16.1
2022-10-18T05:01:58.721Z,16.1
2022-10-18T05:03:02.094Z,16.1
2022-10-18T05:04:05.516Z,16.1
2022-10-18T05:05:14.719Z,16.1
2022-10-18T05:06:17.825Z,16.1
2022-10-18T05:07:21.651Z,16.1
2022-10-18T05:08:24.722Z,16.1
2022-10-18T05:09:27.859Z,16.1
2022-10-18T05:10:30.844Z,16.1
2022-10-18T05:11:33.448Z,16.1
2022-10-18T05:12:36.657Z,16.1
2022-10-18T05:13:39.448Z,16.1
2022-10-18T05:14:41.954Z,16.1
2022-10-18T05:15:44.811Z,16.1
2022-10-18T05:16:47.318Z,16.1
2022-10-18T05:17:50.462Z,16.1
2022-10-18T05:18:53.612Z,16.1
2022-10-18T05:19:57.294Z,16.1
2022-10-18T05:21:00.618Z,16
2022-10-18T05:22:03.447Z,16
2022-10-18T05:23:07.507Z,16
2022-10-18T05:24:10.914Z,16
2022-10-18T05:25:14.246Z,16
2022-10-18T05:26:17.036Z,16
2022-10-18T05:27:20.098Z,16
2022-10-18T05:28:53.153Z,16
2022-10-18T05:30:05.319Z,16
2022-10-18T05:31:09.227Z,15.9
2022-10-18T05:32:12.647Z,15.9
2022-10-18T05:33:15.710Z,15.9
2022-10-18T05:34:18.801Z,15.9
2022-10-18T05:35:22.075Z,15.9
2022-10-18T05:36:24.659Z,15.9
2022-10-18T05:37:29.506Z,15.9
2022-10-18T05:38:33.981Z,15.9
2022-10-18T05:39:37.067Z,15.9
2022-10-18T05:40:40.448Z,15.8
2022-10-18T05:41:43.514Z,15.8
2022-10-18T05:42:47.172Z,15.8
2022-10-18T05:43:49.883Z,15.8
2022-10-18T05:44:53.308Z,15.8
2022-10-18T05:45:56.479Z,15.8
2022-10-18T05:47:00.199Z,15.7
2022-10-18T05:48:02.640Z,15.7
2022-10-18T05:49:06.157Z,15.7
2022-10-18T05:50:09.654Z,15.7
2022-10-18T05:51:13.006Z,15.7
2022-10-18T05:52:15.989Z,15.7
2022-10-18T05:53:38.571Z,15.7
2022-10-18T05:54:42.593Z,15.7
2022-10-18T05:55:45.661Z,15.7
2022-10-18T05:56:48.452Z,15.7
2022-10-18T05:57:51.158Z,15.7
2022-10-18T05:58:54.581Z,15.7
2022-10-18T05:59:57.369Z,15.7
2022-10-18T06:01:01.098Z,15.7
2022-10-18T06:02:04.156Z,15.7
2022-10-18T06:03:07.380Z,15.7
2022-10-18T06:04:11.131Z,15.7
2022-10-18T06:05:13.922Z,15.7
2022-10-18T06:06:17.162Z,15.7
2022-10-18T06:07:19.931Z,15.7
2022-10-18T06:08:22.637Z,15.7
2022-10-18T06:09:25.948Z,15.7
2022-10-18T06:10:29.817Z,15.7
2022-10-18T06:11:32.060Z,15.7
2022-10-18T06:12:35.715Z,15.7
2022-10-18T06:13:38.580Z,15.7
2022-10-18T06:14:41.641Z,15.7
2022-10-18T06:15:44.883Z,15.7
2022-10-18T06:16:47.618Z,15.7
2022-10-18T06:17:50.763Z,15.7
2022-10-18T06:18:54.206Z,15.7
2022-10-18T06:19:57.275Z,15.7
2022-10-18T06:21:00.109Z,15.7
2022-10-18T06:22:03.259Z,15.7
2022-10-18T06:23:05.927Z,15.7
2022-10-18T06:24:09.542Z,15.7
2022-10-18T06:25:12.174Z,15.8
2022-10-18T06:26:16.242Z,15.8
2022-10-18T06:27:19.386Z,15.8
2022-10-18T06:28:21.981Z,15.8
2022-10-18T06:29:25.446Z,15.8
2022-10-18T06:30:28.670Z,15.9
2022-10-18T06:31:31.190Z,15.9
2022-10-18T06:32:34.070Z,15.9
2022-10-18T06:33:36.862Z,15.9
2022-10-18T06:34:39.660Z,15.9
2022-10-18T06:35:42.727Z,15.9
2022-10-18T06:36:46.075Z,15.9
2022-10-18T06:37:48.665Z,16
2022-10-18T06:38:52.113Z,16
2022-10-18T06:39:55.536Z,16
2022-10-18T06:40:58.454Z,16
2022-10-18T06:42:02.280Z,16
2022-10-18T06:43:21.882Z,16
2022-10-18T06:44:25.433Z,16
2022-10-18T06:45:28.332Z,16
2022-10-18T06:46:31.121Z,16
2022-10-18T06:47:34.180Z,16.1
2022-10-18T06:48:37.166Z,16.1
2022-10-18T06:49:40.639Z,16.1
2022-10-18T06:50:43.920Z,16.1
2022-10-18T06:51:47.260Z,16.1
2022-10-18T06:52:49.554Z,16.1
2022-10-18T06:54:19.166Z,16.1
2022-10-18T06:55:22.311Z,16.1
2022-10-18T06:56:25.791Z,16.1
2022-10-18T06:57:29.946Z,16.1
2022-10-18T06:58:33.033Z,16.1
2022-10-18T06:59:36.125Z,16.1
2022-10-18T07:00:39.467Z,16.1
2022-10-18T07:01:43.144Z,16.1
2022-10-18T07:02:45.974Z,16.1
2022-10-18T07:03:49.312Z,16.1
2022-10-18T07:04:51.910Z,16.2
2022-10-18T07:05:54.059Z,16.1
2022-10-18T07:06:57.421Z,16.2
2022-10-18T07:08:00.768Z,16.2
2022-10-18T07:09:03.923Z,16.2
2022-10-18T07:10:06.641Z,16.2
2022-10-18T07:11:12.999Z,16.3
2022-10-18T07:12:16.487Z,16.3
2022-10-18T07:13:33.979Z,16.3
2022-10-18T07:14:37.045Z,16.3
2022-10-18T07:15:40.502Z,16.3
2022-10-18T07:16:42.716Z,16.4
2022-10-18T07:17:45.864Z,16.4
2022-10-18T07:18:48.852Z,16.4
2022-10-18T07:19:51.649Z,16.4
2022-10-18T07:20:55.295Z,16.4
2022-10-18T07:21:58.475Z,16.4
2022-10-18T07:23:01.551Z,16.4
2022-10-18T07:24:04.815Z,16.4
2022-10-18T07:25:08.313Z,16.4
2022-10-18T07:26:11.438Z,16.4
2022-10-18T07:27:14.879Z,16.4
2022-10-18T07:28:17.998Z,16.4
2022-10-18T07:29:21.816Z,16.4
2022-10-18T07:30:24.702Z,16.4
2022-10-18T07:31:27.787Z,16.4
2022-10-18T07:32:30.712Z,16.5
2022-10-18T07:33:34.081Z,16.5
2022-10-18T07:34:37.147Z,16.5
2022-10-18T07:35:39.931Z,16.4
2022-10-18T07:36:42.826Z,16.5
2022-10-18T07:37:45.960Z,16.5
2022-10-18T07:38:49.405Z,16.5
2022-10-18T07:39:52.558Z,16.5
2022-10-18T07:40:55.460Z,16.5
2022-10-18T07:41:58.874Z,16.5
2022-10-18T07:43:10.253Z,16.5
2022-10-18T07:44:15.278Z,16.5
2022-10-18T07:45:19.436Z,16.5
2022-10-18T07:46:22.220Z,16.5
2022-10-18T07:47:25.213Z,16.5
2022-10-18T07:48:29.718Z,16.5
2022-10-18T07:49:33.115Z,16.5
2022-10-18T07:50:36.202Z,16.5
2022-10-18T07:51:39.817Z,16.5
2022-10-18T07:52:43.238Z,16.4
2022-10-18T07:53:45.699Z,16.4
2022-10-18T07:55:52.175Z,16.4
2022-10-18T07:56:55.899Z,16.4
2022-10-18T07:57:58.523Z,16.4
2022-10-18T07:59:01.392Z,16.4
2022-10-18T08:00:04.397Z,16.4
2022-10-18T08:01:08.825Z,16.4
2022-10-18T08:02:11.877Z,16.4
2022-10-18T08:03:14.328Z,16.4
2022-10-18T08:04:18.007Z,16.4
2022-10-18T08:05:20.756Z,16.4
2022-10-18T08:06:24.156Z,16.4
2022-10-18T08:07:27.580Z,16.4
2022-10-18T08:08:31.014Z,16.4
2022-10-18T08:09:34.184Z,16.4
2022-10-18T08:10:37.528Z,16.4
2022-10-18T08:11:40.869Z,16.4
2022-10-18T08:12:43.851Z,16.4
2022-10-18T08:13:47.186Z,16.4
2022-10-18T08:14:50.342Z,16.4
2022-10-18T08:15:53.722Z,16.5
2022-10-18T08:16:57.616Z,16.5
2022-10-18T08:18:00.866Z,16.5
2022-10-18T08:19:04.600Z,16.5
2022-10-18T08:20:31.548Z,16.5
2022-10-18T08:21:35.351Z,16.5
2022-10-18T08:22:38.715Z,16.5
2022-10-18T08:23:41.709Z,16.5
2022-10-18T08:24:45.235Z,16.5
2022-10-18T08:25:48.407Z,16.5
2022-10-18T08:26:52.406Z,16.5
2022-10-18T08:27:55.576Z,16.5
2022-10-18T08:29:28.062Z,16.5
2022-10-18T08:30:35.267Z,16.5
2022-10-18T08:31:38.736Z,16.5
2022-10-18T08:32:42.617Z,16.5
2022-10-18T08:33:45.687Z,16.5
2022-10-18T08:34:49.252Z,16.5
2022-10-18T08:35:52.597Z,16.5
2022-10-18T08:36:55.760Z,16.5
2022-10-18T08:37:59.251Z,16.5
2022-10-18T08:39:03.228Z,16.5
2022-10-18T08:40:06.743Z,16.5
2022-10-18T08:41:10.000Z,16.5
2022-10-18T08:42:13.052Z,16.5
2022-10-18T08:43:22.570Z,16.5
2022-10-18T08:44:25.258Z,16.5
2022-10-18T08:45:43.953Z,16.5
2022-10-18T08:46:46.985Z,16.5
2022-10-18T08:47:50.865Z,16.6
2022-10-18T08:48:53.736Z,16.6
2022-10-18T08:49:57.179Z,16.6
2022-10-18T08:51:00.880Z,16.6
2022-10-18T08:52:04.021Z,16.6
2022-10-18T08:53:06.452Z,16.6
2022-10-18T08:54:09.523Z,16.6
2022-10-18T08:55:12.385Z,16.6
2022-10-18T08:56:15.623Z,16.6
2022-10-18T08:57:18.718Z,16.6
2022-10-18T08:58:21.864Z,16.7
2022-10-18T08:59:26.615Z,16.6
2022-10-18T09:00:29.675Z,16.7
2022-10-18T09:01:33.542Z,16.6
2022-10-18T09:02:36.969Z,16.6
2022-10-18T09:03:41.889Z,16.6
2022-10-18T09:04:44.600Z,16.6
2022-10-18T09:05:47.668Z,16.6
2022-10-18T09:06:50.863Z,16.6
2022-10-18T09:07:54.204Z,16.6
2022-10-18T09:08:57.655Z,16.6
2022-10-18T09:10:00.789Z,16.6
2022-10-18T09:11:04.530Z,16.7
2022-10-18T09:12:07.042Z,16.6
2022-10-18T09:13:09.850Z,16.7
2022-10-18T09:14:13.177Z,16.7
2022-10-18T09:15:16.276Z,16.6
2022-10-18T09:16:19.537Z,16.6
2022-10-18T09:17:22.712Z,16.7
2022-10-18T09:18:25.624Z,16.6
2022-10-18T09:19:29.727Z,16.7
2022-10-18T09:20:33.093Z,16.7
2022-10-18T09:21:36.163Z,16.7
2022-10-18T09:22:38.809Z,16.8
2022-10-18T09:23:42.225Z,16.8
2022-10-18T09:24:44.745Z,16.8
2022-10-18T09:25:47.264Z,16.8
2022-10-18T09:26:50.431Z,16.8
2022-10-18T09:27:53.335Z,16.9
2022-10-18T09:28:57.071Z,16.8
2022-10-18T09:30:00.411Z,16.9
2022-10-18T09:31:03.834Z,16.8
2022-10-18T09:32:07.629Z,16.8
2022-10-18T09:33:10.973Z,16.9
2022-10-18T09:34:14.727Z,16.9
2022-10-18T09:35:18.613Z,16.9
2022-10-18T09:36:21.984Z,16.9
2022-10-18T09:37:24.864Z,16.9
2022-10-18T09:38:28.513Z,16.9
2022-10-18T09:39:32.255Z,16.9
2022-10-18T09:40:34.847Z,16.9
2022-10-18T09:41:38.268Z,16.9
2022-10-18T09:42:41.636Z,17
2022-10-18T09:43:44.872Z,17
2022-10-18T09:44:47.655Z,17
2022-10-18T09:45:50.803Z,17
2022-10-18T09:46:53.655Z,17
2022-10-18T09:47:56.723Z,17.1
2022-10-18T09:48:59.795Z,17
2022-10-18T09:50:03.189Z,17.1
2022-10-18T09:51:07.424Z,17.1
2022-10-18T09:52:10.222Z,17.1
2022-10-18T09:53:14.232Z,17.2
2022-10-18T09:54:17.029Z,17.1
2022-10-18T09:55:20.760Z,17.1
2022-10-18T09:56:24.138Z,17.2
2022-10-18T09:57:26.580Z,17.2
2022-10-18T09:58:29.381Z,17.2
2022-10-18T09:59:32.815Z,17.2
2022-10-18T10:00:36.443Z,17.2
2022-10-18T10:01:39.540Z,17.2
2022-10-18T10:02:42.549Z,17.3
2022-10-18T10:03:45.815Z,17.3
2022-10-18T10:04:49.004Z,17.3
2022-10-18T10:05:52.461Z,17.3
2022-10-18T10:06:56.635Z,17.4
2022-10-18T10:07:58.871Z,17.4
2022-10-18T10:09:02.319Z,17.4
2022-10-18T10:10:06.077Z,17.4
2022-10-18T10:11:09.632Z,17.4
2022-10-18T10:12:12.864Z,17.4
2022-10-18T10:13:15.656Z,17.4
2022-10-18T10:14:19.014Z,17.5
2022-10-18T10:15:22.243Z,17.5
2022-10-18T10:16:25.275Z,17.5
2022-10-18T10:17:28.839Z,17.5
2022-10-18T10:18:33.286Z,17.5
2022-10-18T10:19:36.383Z,17.5
2022-10-18T10:20:39.389Z,17.5
2022-10-18T10:21:43.213Z,17.5
2022-10-18T10:22:47.375Z,17.5
2022-10-18T10:23:50.724Z,17.5
2022-10-18T10:24:54.102Z,17.6
2022-10-18T10:25:57.825Z,17.6
2022-10-18T10:27:00.915Z,17.6
2022-10-18T10:28:03.496Z,17.6
2022-10-18T10:29:44.646Z,17.6
2022-10-18T10:30:48.531Z,17.6
2022-10-18T10:31:52.256Z,17.7
2022-10-18T10:32:54.773Z,17.7
2022-10-18T10:33:58.287Z,17.7
2022-10-18T10:35:01.112Z,17.7
2022-10-18T10:36:04.545Z,17.7
2022-10-18T10:37:08.601Z,17.7
2022-10-18T10:38:12.693Z,17.7
2022-10-18T10:39:15.481Z,17.7
2022-10-18T10:40:26.465Z,17.7
2022-10-18T10:41:34.772Z,17.7
2022-10-18T10:42:37.966Z,17.7
2022-10-18T10:43:41.414Z,17.7
2022-10-18T10:44:44.854Z,17.7
2022-10-18T10:45:48.217Z,17.7
2022-10-18T10:46:51.057Z,17.7
2022-10-18T10:47:53.775Z,17.7
2022-10-18T10:49:41.142Z,17.7
2022-10-18T10:50:44.384Z,17.7
2022-10-18T10:52:26.172Z,17.7
2022-10-18T10:53:32.280Z,17.7
2022-10-18T10:54:35.718Z,17.8
2022-10-18T10:57:57.727Z,17.9
2022-10-18T10:59:01.025Z,18
2022-10-18T11:00:05.000Z,18.1
2022-10-18T11:01:12.159Z,18.2
2022-10-18T11:02:15.298Z,18.4
2022-10-18T11:03:30.913Z,18.4
2022-10-18T11:04:34.352Z,18.6
2022-10-18T11:05:38.055Z,18.8
2022-10-18T11:06:41.479Z,18.9
2022-10-18T11:07:45.203Z,19
2022-10-18T11:08:49.517Z,19.2
2022-10-18T11:09:52.312Z,19.3
2022-10-18T11:10:56.015Z,19.5
2022-10-18T11:11:58.807Z,19.7
2022-10-18T11:13:02.163Z,19.8
2022-10-18T11:14:34.095Z,20
2022-10-18T11:15:37.745Z,20.2
2022-10-18T11:16:40.814Z,20.4
2022-10-18T11:17:44.124Z,20.5
2022-10-18T11:18:47.001Z,20.7
2022-10-18T11:19:50.215Z,20.8
2022-10-18T11:20:53.586Z,20.9
2022-10-18T11:21:57.028Z,21
2022-10-18T11:23:00.429Z,21.1
2022-10-18T11:24:04.602Z,21.2
2022-10-18T11:25:07.538Z,21.3
2022-10-18T11:26:10.602Z,21.4
2022-10-18T11:27:13.420Z,21.5
2022-10-18T11:28:17.119Z,21.5
2022-10-18T11:29:20.420Z,21.6
2022-10-18T11:30:23.009Z,21.7
2022-10-18T11:31:26.361Z,21.7
2022-10-18T11:32:30.088Z,21.8
2022-10-18T11:34:10.445Z,21.8
2022-10-18T11:35:13.884Z,21.9
2022-10-18T11:36:16.923Z,21.9
2022-10-18T11:37:40.412Z,22
2022-10-18T11:38:45.308Z,22.1
2022-10-18T11:39:49.621Z,22.1
2022-10-18T11:40:52.697Z,22.1
2022-10-18T11:41:55.215Z,22.2
2022-10-18T11:42:57.443Z,22.2
2022-10-18T11:44:04.491Z,22.2
2022-10-18T11:45:07.316Z,22.2
2022-10-18T11:46:10.698Z,22.2
2022-10-18T11:47:14.164Z,22.2
2022-10-18T11:48:16.761Z,22.1
2022-10-18T11:49:20.114Z,22.1
2022-10-18T11:50:22.935Z,22
2022-10-18T11:52:08.623Z,21.9
2022-10-18T11:53:12.805Z,21.9
2022-10-18T11:54:15.680Z,21.7
2022-10-18T11:55:19.579Z,21.7
2022-10-18T11:56:22.491Z,21.6
2022-10-18T11:57:25.634Z,21.5
2022-10-18T11:58:28.623Z,21.5
2022-10-18T11:59:31.818Z,21.3
2022-10-18T12:00:34.275Z,21.3
2022-10-18T12:01:38.019Z,21.1
2022-10-18T12:02:40.663Z,21
2022-10-18T12:03:43.861Z,21
2022-10-18T12:05:36.561Z,20.9
2022-10-18T12:06:39.843Z,20.8
2022-10-18T12:07:42.985Z,20.6
2022-10-18T12:08:46.415Z,20.5
2022-10-18T12:09:49.571Z,20.5
2022-10-18T12:11:07.176Z,20.4
2022-10-18T12:12:10.569Z,20.4
2022-10-18T12:13:13.646Z,20.3
2022-10-18T12:14:17.373Z,20.1
2022-10-18T12:15:20.274Z,20.1
2022-10-18T12:16:55.619Z,20.1
2022-10-18T12:19:55.685Z,19.9
2022-10-18T12:20:59.384Z,19.8
2022-10-18T12:22:02.620Z,19.8
2022-10-18T12:23:05.826Z,19.8
2022-10-18T12:24:09.107Z,19.8
2022-10-18T12:25:12.536Z,19.9
2022-10-18T12:26:16.710Z,19.9
2022-10-18T12:27:20.228Z,19.9
2022-10-18T12:28:23.370Z,19.9
2022-10-18T12:29:26.289Z,20
2022-10-18T12:30:28.605Z,20
2022-10-18T12:31:31.673Z,20
2022-10-18T12:32:35.771Z,20.1
2022-10-18T12:33:38.596Z,20.1
2022-10-18T12:34:41.754Z,20.1
2022-10-18T12:35:44.279Z,20.2
2022-10-18T12:36:47.633Z,20.2
2022-10-18T12:37:50.744Z,20.3
2022-10-18T12:38:53.707Z,20.3
2022-10-18T12:40:21.754Z,20.3
2022-10-18T12:41:25.739Z,20.3
2022-10-18T12:42:29.103Z,20.3
2022-10-18T12:43:32.276Z,20.3
2022-10-18T12:44:35.132Z,20.3
2022-10-18T12:45:38.864Z,20.3
2022-10-18T12:46:42.117Z,20.3
2022-10-18T12:47:44.825Z,20.2
2022-10-18T12:48:48.561Z,20.2
2022-10-18T12:49:52.184Z,20.2
2022-10-18T12:50:55.266Z,20.2
2022-10-18T12:51:58.482Z,20.2
2022-10-18T12:53:01.196Z,20.2
2022-10-18T12:54:04.005Z,20.2
2022-10-18T12:55:07.518Z,20.2
2022-10-18T12:56:10.950Z,20.3
2022-10-18T12:57:14.980Z,20.3
2022-10-18T12:58:17.774Z,20.3
2022-10-18T12:59:20.560Z,20.3
2022-10-18T13:00:23.421Z,20.3
2022-10-18T13:01:26.967Z,20.4
2022-10-18T13:02:31.580Z,20.3
2022-10-18T13:03:36.568Z,20.3
2022-10-18T13:04:39.281Z,20.3
2022-10-18T13:05:56.372Z,20.3
2022-10-18T13:07:00.990Z,20.3
2022-10-18T13:08:03.968Z,20.3
2022-10-18T13:09:06.941Z,20.4
2022-10-18T13:10:10.336Z,20.4
2022-10-18T13:11:13.275Z,20.4
2022-10-18T13:12:16.863Z,20.4
2022-10-18T13:13:41.258Z,20.4
2022-10-18T13:15:25.194Z,20.5
2022-10-18T13:16:37.008Z,20.6
2022-10-18T13:17:40.658Z,20.7
2022-10-18T13:18:42.817Z,20.7
2022-10-18T13:19:46.048Z,20.7
2022-10-18T13:21:29.736Z,20.7
2022-10-18T13:22:33.007Z,20.8
2022-10-18T13:23:39.098Z,20.9
2022-10-18T13:24:42.478Z,20.9
2022-10-18T13:25:46.152Z,21
2022-10-18T13:27:24.260Z,21.1
2022-10-18T13:28:40.408Z,21
2022-10-18T13:29:44.169Z,21.1
2022-10-18T13:30:48.187Z,21.2
2022-10-18T13:31:51.334Z,21.2
2022-10-18T13:32:54.720Z,21.3
2022-10-18T13:34:00.581Z,21.3
2022-10-18T13:35:03.809Z,21.3
2022-10-18T13:36:07.242Z,21.3
2022-10-18T13:37:09.948Z,21.4
2022-10-18T13:38:13.032Z,21.4
2022-10-18T13:39:16.211Z,21.4
2022-10-18T13:40:19.203Z,21.4
2022-10-18T13:41:22.062Z,21.4
2022-10-18T13:42:25.958Z,21.3
2022-10-18T13:43:29.298Z,21.3
2022-10-18T13:44:33.426Z,21.2
2022-10-18T13:45:35.959Z,21.2
2022-10-18T13:46:39.328Z,21.1
2022-10-18T13:47:43.647Z,21.1
2022-10-18T13:48:48.580Z,21
2022-10-18T13:49:58.575Z,21
2022-10-18T13:51:02.107Z,21
2022-10-18T13:52:05.265Z,20.9
2022-10-18T13:53:08.701Z,20.9
2022-10-18T13:54:11.582Z,20.9
2022-10-18T13:55:14.575Z,20.8
2022-10-18T13:56:18.097Z,20.8
2022-10-18T13:57:21.557Z,20.7
2022-10-18T13:58:24.641Z,20.6
2022-10-18T13:59:28.033Z,20.5
2022-10-18T14:00:32.317Z,20.5
2022-10-18T14:01:42.628Z,20.4
2022-10-18T14:03:01.252Z,20.3
2022-10-18T14:04:06.605Z,20.3
2022-10-18T14:05:26.364Z,20.3
2022-10-18T14:06:28.898Z,20.3
2022-10-18T14:07:32.249Z,20.2
2022-10-18T14:08:35.094Z,20.2
2022-10-18T14:09:48.809Z,20.2
2022-10-18T14:11:06.197Z,20.1
2022-10-18T14:12:09.833Z,20.1
2022-10-18T14:13:12.891Z,20
2022-10-18T14:14:16.162Z,20
2022-10-18T14:15:20.176Z,19.9
2022-10-18T14:16:24.090Z,19.9
2022-10-18T14:17:27.605Z,19.8
2022-10-18T14:18:32.853Z,19.7
2022-10-18T14:19:36.577Z,19.7
2022-10-18T14:21:14.696Z,19.6
2022-10-18T14:22:34.333Z,19.5
2022-10-18T14:23:38.748Z,19.4
2022-10-18T14:24:41.732Z,19.4
2022-10-18T14:25:45.436Z,19.3
2022-10-18T14:26:48.585Z,19.3
2022-10-18T14:27:55.523Z,19.2
2022-10-18T14:29:01.113Z,19.2